sensor_id;sensor_type;location;lat;lon;timestamp;pressure;altitude;pressure_sealevel;temperature;humidity
62418;BME280;48456;54.242;10.280;2024-03-23T00:54:28;100508.88;;;4.99;100.00
62418;BME280;48456;54.242;10.280;2024-03-23T00:56:53;100507.09;;;4.97;100.00
62418;BME280;48456;54.242;10.280;2024-03-23T00:59:19;100498.28;;;4.93;100.00
62418;BME280;48456;54.242;10.280;2024-03-23T01:01:45;100503.47;;;4.90;100.00
62418;BME280;48456;54.242;10.280;2024-03-23T01:04:10;100484.25;;;4.88;100.00
62418;BME280;48456;54.242;10.280;2024-03-23T01:06:36;100480.72;;;4.86;100.00
62418;BME280;48456;54.242;10.280;2024-03-23T01:09:01;100478.06;;;4.83;100.00
62418;BME280;48456;54.242;10.280;2024-03-23T01:11:27;100485.88;;;4.81;100.00
62418;BME280;48456;54.242;10.280;2024-03-23T01:13:53;100472.72;;;4.78;100.00
62418;BME280;48456;54.242;10.280;2024-03-23T01:16:20;100467.47;;;4.76;100.00
62418;BME280;48456;54.242;10.280;2024-03-23T01:18:45;100466.59;;;4.74;100.00
62418;BME280;48456;54.242;10.280;2024-03-23T01:21:11;100468.25;;;4.71;100.00
62418;BME280;48456;54.242;10.280;2024-03-23T01:23:36;100460.38;;;4.67;100.00
62418;BME280;48456;54.242;10.280;2024-03-23T01:26:02;100463.81;;;4.66;100.00
62418;BME280;48456;54.242;10.280;2024-03-23T01:28:27;100468.19;;;4.64;100.00
62418;BME280;48456;54.242;10.280;2024-03-23T01:30:53;100450.72;;;4.63;100.00
62418;BME280;48456;54.242;10.280;2024-03-23T01:33:18;100446.31;;;4.61;100.00
62418;BME280;48456;54.242;10.280;2024-03-23T01:35:43;100436.66;;;4.57;100.00
62418;BME280;48456;54.242;10.280;2024-03-23T01:38:09;100427.91;;;4.58;100.00
62418;BME280;48456;54.242;10.280;2024-03-23T01:40:34;100428.78;;;4.57;100.00
62418;BME280;48456;54.242;10.280;2024-03-23T01:43:04;100424.38;;;4.55;100.00
62418;BME280;48456;54.242;10.280;2024-03-23T01:45:30;100423.50;;;4.55;100.00
62418;BME280;48456;54.242;10.280;2024-03-23T01:47:55;100429.63;;;4.55;100.00
62418;BME280;48456;54.242;10.280;2024-03-23T01:50:21;100435.72;;;4.54;100.00
62418;BME280;48456;54.242;10.280;2024-03-23T01:52:47;100432.25;;;4.54;100.00
62418;BME280;48456;54.242;10.280;2024-03-23T01:55:12;100422.56;;;4.51;100.00
62418;BME280;48456;54.242;10.280;2024-03-23T01:57:38;100426.06;;;4.50;100.00
62418;BME280;48456;54.242;10.280;2024-03-23T02:00:03;100425.16;;;4.48;100.00
62418;BME280;48456;54.242;10.280;2024-03-23T02:02:29;100422.50;;;4.45;100.00
62418;BME280;48456;54.242;10.280;2024-03-23T02:04:55;100418.09;;;4.42;100.00
62418;BME280;48456;54.242;10.280;2024-03-23T02:07:20;100416.31;;;4.40;100.00
62418;BME280;48456;54.242;10.280;2024-03-23T02:09:46;100414.53;;;4.37;100.00
62418;BME280;48456;54.242;10.280;2024-03-23T02:12:11;100414.47;;;4.34;100.00
62418;BME280;48456;54.242;10.280;2024-03-23T02:14:36;100408.34;;;4.31;100.00
62418;BME280;48456;54.242;10.280;2024-03-23T02:17:02;100401.28;;;4.28;100.00
62418;BME280;48456;54.242;10.280;2024-03-23T02:19:27;100395.16;;;4.26;100.00
62418;BME280;48456;54.242;10.280;2024-03-23T02:21:53;100392.50;;;4.24;100.00
62418;BME280;48456;54.242;10.280;2024-03-23T02:24:19;100390.69;;;4.20;100.00
62418;BME280;48456;54.242;10.280;2024-03-23T02:26:44;100386.34;;;4.19;100.00
62418;BME280;48456;54.242;10.280;2024-03-23T02:29:09;100387.22;;;4.20;100.00
62418;BME280;48456;54.242;10.280;2024-03-23T02:31:35;100385.41;;;4.17;100.00
62418;BME280;48456;54.242;10.280;2024-03-23T02:34:01;100387.13;;;4.13;100.00
62418;BME280;48456;54.242;10.280;2024-03-23T02:36:26;100382.63;;;4.06;100.00
62418;BME280;48456;54.242;10.280;2024-03-23T02:38:52;100376.47;;;4.02;100.00
62418;BME280;48456;54.242;10.280;2024-03-23T02:41:17;100374.69;;;4.00;100.00
62418;BME280;48456;54.242;10.280;2024-03-23T02:43:51;100375.47;;;3.94;100.00
62418;BME280;48456;54.242;10.280;2024-03-23T02:46:16;100367.53;;;3.89;100.00
62418;BME280;48456;54.242;10.280;2024-03-23T02:48:42;100369.22;;;3.86;100.00
62418;BME280;48456;54.242;10.280;2024-03-23T02:51:08;100366.53;;;3.81;100.00
62418;BME280;48456;54.242;10.280;2024-03-23T02:53:33;100366.50;;;3.78;100.00
62418;BME280;48456;54.242;10.280;2024-03-23T02:55:59;100359.47;;;3.74;100.00
62418;BME280;48456;54.242;10.280;2024-03-23T02:58:24;100352.44;;;3.71;100.00
62418;BME280;48456;54.242;10.280;2024-03-23T03:00:50;100353.28;;;3.70;100.00
62418;BME280;48456;54.242;10.280;2024-03-23T03:03:15;100350.66;;;3.69;100.00
62418;BME280;48456;54.242;10.280;2024-03-23T03:05:41;100339.25;;;3.65;100.00
62418;BME280;48456;54.242;10.280;2024-03-23T03:08:06;100341.75;;;3.57;100.00
62418;BME280;48456;54.242;10.280;2024-03-23T03:10:32;100336.41;;;3.53;100.00
62418;BME280;48456;54.242;10.280;2024-03-23T03:13:00;100338.09;;;3.49;100.00
62418;BME280;48456;54.242;10.280;2024-03-23T03:15:25;100331.06;;;3.45;100.00
62418;BME280;48456;54.242;10.280;2024-03-23T03:17:51;100330.13;;;3.43;100.00
62418;BME280;48456;54.242;10.280;2024-03-23T03:20:16;100328.41;;;3.43;100.00
62418;BME280;48456;54.242;10.280;2024-03-23T03:22:43;100332.75;;;3.41;100.00
62418;BME280;48456;54.242;10.280;2024-03-23T03:25:09;100327.53;;;3.43;100.00
62418;BME280;48456;54.242;10.280;2024-03-23T03:27:34;100319.66;;;3.40;100.00
62418;BME280;48456;54.242;10.280;2024-03-23T03:30:00;100319.69;;;3.41;100.00
62418;BME280;48456;54.242;10.280;2024-03-23T03:32:30;100314.44;;;3.41;100.00
62418;BME280;48456;54.242;10.280;2024-03-23T03:34:55;100314.44;;;3.43;100.00
62418;BME280;48456;54.242;10.280;2024-03-23T03:37:21;100306.59;;;3.43;100.00
62418;BME280;48456;54.242;10.280;2024-03-23T03:39:46;100307.44;;;3.40;100.00
62418;BME280;48456;54.242;10.280;2024-03-23T03:42:12;100313.50;;;3.37;100.00
62418;BME280;48456;54.242;10.280;2024-03-23T03:44:37;100309.09;;;3.35;100.00
62418;BME280;48456;54.242;10.280;2024-03-23T03:47:03;100300.38;;;3.33;100.00
62418;BME280;48456;54.242;10.280;2024-03-23T03:49:28;100300.38;;;3.33;100.00
62418;BME280;48456;54.242;10.280;2024-03-23T03:51:54;100293.34;;;3.32;100.00
62418;BME280;48456;54.242;10.280;2024-03-23T03:54:20;100292.47;;;3.30;100.00
62418;BME280;48456;54.242;10.280;2024-03-23T03:56:46;100274.06;;;3.25;100.00
62418;BME280;48456;54.242;10.280;2024-03-23T03:59:11;100285.44;;;3.27;100.00
62418;BME280;48456;54.242;10.280;2024-03-23T04:01:36;100277.50;;;3.22;100.00
62418;BME280;48456;54.242;10.280;2024-03-23T04:04:02;100277.50;;;3.22;100.00
62418;BME280;48456;54.242;10.280;2024-03-23T04:06:27;100279.28;;;3.22;100.00
62418;BME280;48456;54.242;10.280;2024-03-23T04:08:53;100267.88;;;3.20;100.00
62418;BME280;48456;54.242;10.280;2024-03-23T04:11:19;100271.41;;;3.20;100.00
62418;BME280;48456;54.242;10.280;2024-03-23T04:13:44;100275.75;;;3.21;100.00
62418;BME280;48456;54.242;10.280;2024-03-23T04:16:10;100274.03;;;3.22;100.00
62418;BME280;48456;54.242;10.280;2024-03-23T04:18:35;100260.09;;;3.23;100.00
62418;BME280;48456;54.242;10.280;2024-03-23T04:21:01;100253.13;;;3.22;100.00
62418;BME280;48456;54.242;10.280;2024-03-23T04:23:26;100242.66;;;3.23;100.00
62418;BME280;48456;54.242;10.280;2024-03-23T04:25:52;100244.34;;;3.18;100.00
62418;BME280;48456;54.242;10.280;2024-03-23T04:28:18;100248.69;;;3.19;100.00
62418;BME280;48456;54.242;10.280;2024-03-23T04:30:44;100253.88;;;3.15;100.00
62418;BME280;48456;54.242;10.280;2024-03-23T04:33:09;100252.94;;;3.12;100.00
62418;BME280;48456;54.242;10.280;2024-03-23T04:35:35;100251.22;;;3.13;100.00
62418;BME280;48456;54.242;10.280;2024-03-23T04:38:01;100253.88;;;3.15;100.00
62418;BME280;48456;54.242;10.280;2024-03-23T04:40:26;100241.59;;;3.10;100.00
62418;BME280;48456;54.242;10.280;2024-03-23T04:42:52;100231.13;;;3.09;100.00
62418;BME280;48456;54.242;10.280;2024-03-23T04:45:17;100220.66;;;3.09;100.00
62418;BME280;48456;54.242;10.280;2024-03-23T04:47:43;100224.09;;;3.06;100.00
62418;BME280;48456;54.242;10.280;2024-03-23T04:50:09;100209.31;;;3.08;100.00
62418;BME280;48456;54.242;10.280;2024-03-23T04:52:36;100212.81;;;3.09;100.00
62418;BME280;48456;54.242;10.280;2024-03-23T04:55:01;100213.66;;;3.06;100.00
62418;BME280;48456;54.242;10.280;2024-03-23T04:57:27;100211.06;;;3.08;100.00
62418;BME280;48456;54.242;10.280;2024-03-23T04:59:52;100214.56;;;3.10;100.00
62418;BME280;48456;54.242;10.280;2024-03-23T05:02:18;100202.31;;;3.06;100.00
62418;BME280;48456;54.242;10.280;2024-03-23T05:04:43;100212.75;;;3.06;100.00
62418;BME280;48456;54.242;10.280;2024-03-23T05:07:09;100211.06;;;3.08;100.00
62418;BME280;48456;54.242;10.280;2024-03-23T05:09:34;100206.72;;;3.07;100.00
62418;BME280;48456;54.242;10.280;2024-03-23T05:12:00;100204.13;;;3.10;100.00
62418;BME280;48456;54.242;10.280;2024-03-23T05:14:26;100200.69;;;3.12;100.00
62418;BME280;48456;54.242;10.280;2024-03-23T05:16:52;100203.28;;;3.12;100.00
62418;BME280;48456;54.242;10.280;2024-03-23T05:19:17;100200.69;;;3.12;100.00
62418;BME280;48456;54.242;10.280;2024-03-23T05:21:43;100198.13;;;3.16;100.00
62418;BME280;48456;54.242;10.280;2024-03-23T05:24:08;100204.25;;;3.19;100.00
62418;BME280;48456;54.242;10.280;2024-03-23T05:26:34;100203.44;;;3.20;100.00
62418;BME280;48456;54.242;10.280;2024-03-23T05:29:01;100202.63;;;3.24;100.00
62418;BME280;48456;54.242;10.280;2024-03-23T05:31:27;100214.91;;;3.29;100.00
62418;BME280;48456;54.242;10.280;2024-03-23T05:33:52;100203.56;;;3.30;100.00
62418;BME280;48456;54.242;10.280;2024-03-23T05:36:18;100208.88;;;3.33;100.00
62418;BME280;48456;54.242;10.280;2024-03-23T05:38:44;100210.63;;;3.35;100.00
62418;BME280;48456;54.242;10.280;2024-03-23T05:41:09;100212.41;;;3.36;100.00
62418;BME280;48456;54.242;10.280;2024-03-23T05:43:35;100209.88;;;3.41;100.00
62418;BME280;48456;54.242;10.280;2024-03-23T05:46:01;100200.38;;;3.48;100.00
62418;BME280;48456;54.242;10.280;2024-03-23T05:48:33;100193.44;;;3.51;100.00
62418;BME280;48456;54.242;10.280;2024-03-23T05:50:58;100190.00;;;3.54;100.00
62418;BME280;48456;54.242;10.280;2024-03-23T05:53:24;100197.88;;;3.57;100.00
62418;BME280;48456;54.242;10.280;2024-03-23T05:55:50;100192.69;;;3.62;100.00
62418;BME280;48456;54.242;10.280;2024-03-23T05:58:16;100196.25;;;3.66;100.00
62418;BME280;48456;54.242;10.280;2024-03-23T06:00:42;100196.31;;;3.69;100.00
62418;BME280;48456;54.242;10.280;2024-03-23T06:03:08;100189.41;;;3.74;100.00
62418;BME280;48456;54.242;10.280;2024-03-23T06:05:38;100185.91;;;3.75;100.00
62418;BME280;48456;54.242;10.280;2024-03-23T06:08:04;100183.34;;;3.76;100.00
62418;BME280;48456;54.242;10.280;2024-03-23T06:10:30;100181.59;;;3.77;100.00
62418;BME280;48456;54.242;10.280;2024-03-23T06:12:57;100180.75;;;3.78;100.00
62418;BME280;48456;54.242;10.280;2024-03-23T06:15:22;100181.66;;;3.82;100.00
62418;BME280;48456;54.242;10.280;2024-03-23T06:17:48;100176.44;;;3.83;100.00
62418;BME280;48456;54.242;10.280;2024-03-23T06:20:14;100168.59;;;3.83;100.00
62418;BME280;48456;54.242;10.280;2024-03-23T06:22:39;100174.75;;;3.88;100.00
62418;BME280;48456;54.242;10.280;2024-03-23T06:25:05;100173.97;;;3.94;100.00
62418;BME280;48456;54.242;10.280;2024-03-23T06:27:30;100172.28;;;3.99;100.00
62418;BME280;48456;54.242;10.280;2024-03-23T06:29:57;100174.13;;;4.07;100.00
62418;BME280;48456;54.242;10.280;2024-03-23T06:32:23;100177.66;;;4.12;100.00
62418;BME280;48456;54.242;10.280;2024-03-23T06:34:48;100182.91;;;4.13;100.00
62418;BME280;48456;54.242;10.280;2024-03-23T06:37:14;100181.16;;;4.11;100.00
62418;BME280;48456;54.242;10.280;2024-03-23T06:39:39;100181.09;;;4.08;100.00
62418;BME280;48456;54.242;10.280;2024-03-23T06:42:05;100179.28;;;4.02;100.00
62418;BME280;48456;54.242;10.280;2024-03-23T06:44:30;100177.56;;;4.02;100.00
62418;BME280;48456;54.242;10.280;2024-03-23T06:46:56;100178.44;;;4.03;100.00
62418;BME280;48456;54.242;10.280;2024-03-23T06:49:25;100177.59;;;4.06;100.00
62418;BME280;48456;54.242;10.280;2024-03-23T06:51:50;100161.91;;;4.07;100.00
62418;BME280;48456;54.242;10.280;2024-03-23T06:54:16;100166.31;;;4.10;100.00
62418;BME280;48456;54.242;10.280;2024-03-23T06:56:43;100172.53;;;4.20;100.00
62418;BME280;48456;54.242;10.280;2024-03-23T06:59:09;100164.78;;;4.29;100.00
62418;BME280;48456;54.242;10.280;2024-03-23T07:01:34;100164.91;;;4.41;100.00
62418;BME280;48456;54.242;10.280;2024-03-23T07:04:00;100164.09;;;4.47;100.00
62418;BME280;48456;54.242;10.280;2024-03-23T07:06:26;100171.16;;;4.54;100.00
62418;BME280;48456;54.242;10.280;2024-03-23T07:08:52;100166.88;;;4.63;100.00
62418;BME280;48456;54.242;10.280;2024-03-23T07:11:21;100172.22;;;4.74;100.00
62418;BME280;48456;54.242;10.280;2024-03-23T07:13:46;100168.78;;;4.79;100.00
62418;BME280;48456;54.242;10.280;2024-03-23T07:16:13;100173.22;;;4.87;100.00
62418;BME280;48456;54.242;10.280;2024-03-23T07:18:38;100173.31;;;4.99;100.00
62418;BME280;48456;54.242;10.280;2024-03-23T07:21:04;100163.81;;;5.12;100.00
62418;BME280;48456;54.242;10.280;2024-03-23T07:23:31;100168.34;;;5.35;100.00
62418;BME280;48456;54.242;10.280;2024-03-23T07:26:00;100173.78;;;5.65;100.00
62418;BME280;48456;54.242;10.280;2024-03-23T07:28:26;100184.28;;;5.68;100.00
62418;BME280;48456;54.242;10.280;2024-03-23T07:31:15;100180.84;;;5.75;100.00
62418;BME280;48456;54.242;10.280;2024-03-23T07:33:43;100180.91;;;5.91;100.00
62418;BME280;48456;54.242;10.280;2024-03-23T07:36:09;100183.59;;;5.97;100.00
62418;BME280;48456;54.242;10.280;2024-03-23T07:38:35;100186.13;;;5.88;100.00
62418;BME280;48456;54.242;10.280;2024-03-23T07:41:10;100183.59;;;5.98;100.00
62418;BME280;48456;54.242;10.280;2024-03-23T07:43:39;100189.69;;;5.97;100.00
62418;BME280;48456;54.242;10.280;2024-03-23T07:46:08;100184.44;;;5.99;100.00
62418;BME280;48456;54.242;10.280;2024-03-23T07:48:33;100171.38;;;6.08;100.00
62418;BME280;48456;54.242;10.280;2024-03-23T07:53:24;100169.66;;;6.17;100.00
62418;BME280;48456;54.242;10.280;2024-03-23T07:56:06;100167.06;;;6.14;100.00
62418;BME280;48456;54.242;10.280;2024-03-23T07:58:32;100166.19;;;6.18;100.00
62418;BME280;48456;54.242;10.280;2024-03-23T08:03:30;100163.59;;;6.33;100.00
62418;BME280;48456;54.242;10.280;2024-03-23T08:05:55;100160.09;;;6.31;100.00
62418;BME280;48456;54.242;10.280;2024-03-23T08:08:21;100157.50;;;6.50;100.00
62418;BME280;48456;54.242;10.280;2024-03-23T08:10:47;100151.41;;;6.57;100.00
62418;BME280;48456;54.242;10.280;2024-03-23T08:13:13;100145.28;;;6.60;100.00
62418;BME280;48456;54.242;10.280;2024-03-23T08:15:38;100148.78;;;6.67;100.00
62418;BME280;48456;54.242;10.280;2024-03-23T08:18:04;100137.38;;;6.77;100.00
62418;BME280;48456;54.242;10.280;2024-03-23T08:20:29;100134.78;;;6.82;100.00
62418;BME280;48456;54.242;10.280;2024-03-23T08:22:55;100135.66;;;7.01;100.00
62418;BME280;48456;54.242;10.280;2024-03-23T08:25:21;100132.13;;;7.27;100.00
62418;BME280;48456;54.242;10.280;2024-03-23T08:27:46;100129.47;;;7.44;100.00
62418;BME280;48456;54.242;10.280;2024-03-23T08:30:12;100132.06;;;7.55;100.00
62418;BME280;48456;54.242;10.280;2024-03-23T08:32:37;100129.41;;;7.67;100.00
62418;BME280;48456;54.242;10.280;2024-03-23T08:35:03;100126.78;;;7.67;100.00
62418;BME280;48456;54.242;10.280;2024-03-23T08:37:29;100115.38;;;7.61;100.00
62418;BME280;48456;54.242;10.280;2024-03-23T08:39:54;100124.13;;;7.69;100.00
62418;BME280;48456;54.242;10.280;2024-03-23T08:42:20;100117.94;;;7.81;100.00
62418;BME280;48456;54.242;10.280;2024-03-23T08:44:46;100121.44;;;7.83;100.00
62418;BME280;48456;54.242;10.280;2024-03-23T08:47:15;100128.50;;;7.65;100.00
62418;BME280;48456;54.242;10.280;2024-03-23T08:49:40;100112.63;;;7.90;100.00
62418;BME280;48456;54.242;10.280;2024-03-23T08:52:06;100116.88;;;8.16;100.00
62418;BME280;48456;54.242;10.280;2024-03-23T08:54:32;100113.47;;;7.99;100.00
62418;BME280;48456;54.242;10.280;2024-03-23T08:56:57;100108.19;;;8.02;100.00
62418;BME280;48456;54.242;10.280;2024-03-23T08:59:23;100113.41;;;8.11;100.00
62418;BME280;48456;54.242;10.280;2024-03-23T09:01:49;100113.47;;;8.03;100.00
62418;BME280;48456;54.242;10.280;2024-03-23T09:04:14;100107.34;;;7.97;100.00
62418;BME280;48456;54.242;10.280;2024-03-23T09:06:42;100106.34;;;8.15;100.00
62418;BME280;48456;54.242;10.280;2024-03-23T09:09:07;100107.94;;;8.44;100.00
62418;BME280;48456;54.242;10.280;2024-03-23T09:11:33;100106.09;;;8.60;100.00
62418;BME280;48456;54.242;10.280;2024-03-23T09:13:58;100092.97;;;8.57;100.00
62418;BME280;48456;54.242;10.280;2024-03-23T09:16:23;100102.69;;;8.42;100.00
62418;BME280;48456;54.242;10.280;2024-03-23T09:18:49;100092.19;;;8.36;100.00
62418;BME280;48456;54.242;10.280;2024-03-23T09:21:15;100091.34;;;8.29;100.00
62418;BME280;48456;54.242;10.280;2024-03-23T09:23:43;100092.91;;;8.60;100.00
62418;BME280;48456;54.242;10.280;2024-03-23T09:26:08;100080.34;;;8.95;100.00
62418;BME280;48456;54.242;10.280;2024-03-23T09:28:34;100081.09;;;9.09;98.88
62418;BME280;48456;54.242;10.280;2024-03-23T09:31:06;100077.88;;;8.73;99.01
62418;BME280;48456;54.242;10.280;2024-03-23T09:33:39;100073.31;;;8.92;99.85
62418;BME280;48456;54.242;10.280;2024-03-23T09:36:05;100069.66;;;9.09;99.66
62418;BME280;48456;54.242;10.280;2024-03-23T09:38:31;100070.25;;;9.33;95.47
62418;BME280;48456;54.242;10.280;2024-03-23T09:40:57;100067.72;;;9.23;90.19
62418;BME280;48456;54.242;10.280;2024-03-23T09:43:22;100073.94;;;9.18;92.56
62418;BME280;48456;54.242;10.280;2024-03-23T09:45:48;100077.44;;;9.21;95.17
62418;BME280;48456;54.242;10.280;2024-03-23T09:48:14;100086.03;;;9.41;93.74
62418;BME280;48456;54.242;10.280;2024-03-23T09:50:40;100076.19;;;9.54;90.75
62418;BME280;48456;54.242;10.280;2024-03-23T09:53:06;100069.75;;;9.01;90.41
62418;BME280;48456;54.242;10.280;2024-03-23T09:55:31;100069.75;;;9.00;90.80
62418;BME280;48456;54.242;10.280;2024-03-23T09:57:57;100064.56;;;8.89;92.80
62418;BME280;48456;54.242;10.280;2024-03-23T10:00:23;100076.78;;;8.96;96.31
62418;BME280;48456;54.242;10.280;2024-03-23T10:02:48;100088.59;;;8.53;99.95
62418;BME280;48456;54.242;10.280;2024-03-23T10:05:20;100084.66;;;7.58;100.00
62418;BME280;48456;54.242;10.280;2024-03-23T10:07:51;100078.66;;;6.94;100.00
62418;BME280;48456;54.242;10.280;2024-03-23T10:10:17;100066.41;;;6.47;100.00
62418;BME280;48456;54.242;10.280;2024-03-23T10:12:46;100066.38;;;6.21;100.00
62418;BME280;48456;54.242;10.280;2024-03-23T10:15:19;100058.50;;;6.16;100.00
62418;BME280;48456;54.242;10.280;2024-03-23T10:17:46;100061.13;;;6.21;100.00
62418;BME280;48456;54.242;10.280;2024-03-23T10:20:12;100052.38;;;6.27;100.00
62418;BME280;48456;54.242;10.280;2024-03-23T10:22:37;100062.00;;;6.20;100.00
62418;BME280;48456;54.242;10.280;2024-03-23T10:25:10;100075.13;;;6.20;100.00
62418;BME280;48456;54.242;10.280;2024-03-23T10:27:36;100081.25;;;6.06;100.00
62418;BME280;48456;54.242;10.280;2024-03-23T10:30:08;100079.38;;;5.80;100.00
62418;BME280;48456;54.242;10.280;2024-03-23T10:32:34;100071.44;;;5.66;100.00
62418;BME280;48456;54.242;10.280;2024-03-23T10:37:42;100058.38;;;5.82;100.00
62418;BME280;48456;54.242;10.280;2024-03-23T10:40:09;100056.72;;;6.06;100.00
62418;BME280;48456;54.242;10.280;2024-03-23T10:42:34;100061.16;;;6.26;100.00
62418;BME280;48456;54.242;10.280;2024-03-23T10:45:00;100067.28;;;6.31;100.00
62418;BME280;48456;54.242;10.280;2024-03-23T10:47:26;100069.88;;;6.17;100.00
62418;BME280;48456;54.242;10.280;2024-03-23T10:49:51;100063.75;;;6.16;100.00
62418;BME280;48456;54.242;10.280;2024-03-23T10:52:17;100063.81;;;6.41;100.00
62418;BME280;48456;54.242;10.280;2024-03-23T10:54:42;100057.66;;;6.84;100.00
62418;BME280;48456;54.242;10.280;2024-03-23T10:57:12;100047.06;;;7.22;100.00
62418;BME280;48456;54.242;10.280;2024-03-23T10:59:39;100040.84;;;7.43;100.00
62418;BME280;48456;54.242;10.280;2024-03-23T11:02:05;100042.53;;;7.58;100.00
62418;BME280;48456;54.242;10.280;2024-03-23T11:04:34;100047.75;;;7.71;100.00
62418;BME280;48456;54.242;10.280;2024-03-23T11:07:00;100039.72;;;8.02;100.00
62418;BME280;48456;54.242;10.280;2024-03-23T11:14:44;100039.69;;;8.05;100.00
62418;BME280;48456;54.242;10.280;2024-03-23T11:17:10;100040.75;;;7.70;100.00
62418;BME280;48456;54.242;10.280;2024-03-23T11:19:36;100034.66;;;7.60;100.00
62418;BME280;48456;54.242;10.280;2024-03-23T11:22:02;100038.25;;;7.37;100.00
62418;BME280;48456;54.242;10.280;2024-03-23T11:24:28;100031.25;;;7.36;100.00
62418;BME280;48456;54.242;10.280;2024-03-23T11:26:53;100027.81;;;7.12;100.00
62418;BME280;48456;54.242;10.280;2024-03-23T11:29:19;100031.25;;;7.34;100.00
62418;BME280;48456;54.242;10.280;2024-03-23T11:31:48;100021.34;;;7.86;100.00
62418;BME280;48456;54.242;10.280;2024-03-23T11:34:14;100015.69;;;8.45;96.61
62418;BME280;48456;54.242;10.280;2024-03-23T11:36:40;100011.66;;;9.03;92.23
62418;BME280;48456;54.242;10.280;2024-03-23T11:41:45;100005.22;;;10.55;83.42
62418;BME280;48456;54.242;10.280;2024-03-23T11:44:14;100013.72;;;11.23;78.24
62418;BME280;48456;54.242;10.280;2024-03-23T11:46:39;100009.00;;;10.91;75.70
62418;BME280;48456;54.242;10.280;2024-03-23T11:49:05;100009.44;;;10.66;76.41
62418;BME280;48456;54.242;10.280;2024-03-23T11:51:30;100001.38;;;10.19;76.60
62418;BME280;48456;54.242;10.280;2024-03-23T11:54:07;100010.31;;;10.67;81.02
62418;BME280;48456;54.242;10.280;2024-03-23T11:56:32;100024.44;;;11.59;75.05
62418;BME280;48456;54.242;10.280;2024-03-23T11:58:58;100031.78;;;11.00;75.61
62418;BME280;48456;54.242;10.280;2024-03-23T12:01:24;100038.78;;;9.88;80.04
62418;BME280;48456;54.242;10.280;2024-03-23T12:03:49;100022.84;;;9.96;85.89
62418;BME280;48456;54.242;10.280;2024-03-23T12:06:19;100018.34;;;9.35;83.57
62418;BME280;48456;54.242;10.280;2024-03-23T12:08:44;100021.72;;;9.48;82.54
62418;BME280;48456;54.242;10.280;2024-03-23T12:11:13;100013.16;;;10.55;84.95
62418;BME280;48456;54.242;10.280;2024-03-23T12:13:40;100013.03;;;11.57;79.88
62418;BME280;48456;54.242;10.280;2024-03-23T12:16:10;100010.28;;;12.41;74.66
62418;BME280;48456;54.242;10.280;2024-03-23T12:18:37;100007.84;;;12.68;68.95
62418;BME280;48456;54.242;10.280;2024-03-23T12:21:02;100010.13;;;13.48;70.64
62418;BME280;48456;54.242;10.280;2024-03-23T12:23:28;99999.03;;;13.64;66.56
62418;BME280;48456;54.242;10.280;2024-03-23T12:25:53;100007.94;;;12.98;66.91
62418;BME280;48456;54.242;10.280;2024-03-23T12:28:19;100003.25;;;12.40;71.90
62418;BME280;48456;54.242;10.280;2024-03-23T12:30:44;100016.06;;;11.79;70.65
62418;BME280;48456;54.242;10.280;2024-03-23T12:33:10;100010.06;;;11.71;70.58
62418;BME280;48456;54.242;10.280;2024-03-23T12:35:35;100004.13;;;10.68;71.59
62418;BME280;48456;54.242;10.280;2024-03-23T12:38:01;100014.22;;;9.83;76.76
62418;BME280;48456;54.242;10.280;2024-03-23T12:40:26;100013.34;;;9.10;78.78
62418;BME280;48456;54.242;10.280;2024-03-23T12:42:53;100015.31;;;8.88;79.79
62418;BME280;48456;54.242;10.280;2024-03-23T12:45:18;100011.13;;;9.49;76.88
62418;BME280;48456;54.242;10.280;2024-03-23T12:47:44;100013.69;;;10.77;73.57
62418;BME280;48456;54.242;10.280;2024-03-23T12:50:09;100021.44;;;11.76;67.56
62418;BME280;48456;54.242;10.280;2024-03-23T12:52:35;100011.06;;;12.08;65.99
62418;BME280;48456;54.242;10.280;2024-03-23T12:55:01;100011.78;;;12.15;66.07
62418;BME280;48456;54.242;10.280;2024-03-23T12:57:26;100012.34;;;11.47;65.49
62418;BME280;48456;54.242;10.280;2024-03-23T12:59:52;100006.41;;;10.88;68.97
62418;BME280;48456;54.242;10.280;2024-03-23T13:02:18;100006.47;;;9.69;69.25
62418;BME280;48456;54.242;10.280;2024-03-23T13:04:44;100013.44;;;9.02;71.52
62418;BME280;48456;54.242;10.280;2024-03-23T13:07:10;99997.84;;;8.79;73.64
62418;BME280;48456;54.242;10.280;2024-03-23T13:09:35;100005.97;;;8.52;73.89
62418;BME280;48456;54.242;10.280;2024-03-23T13:12:01;100005.25;;;8.31;73.84
62418;BME280;48456;54.242;10.280;2024-03-23T13:14:26;100000.69;;;8.58;73.06
62418;BME280;48456;54.242;10.280;2024-03-23T13:16:52;99994.97;;;9.73;71.68
62418;BME280;48456;54.242;10.280;2024-03-23T13:19:18;100001.59;;;10.62;67.69
62418;BME280;48456;54.242;10.280;2024-03-23T13:21:43;100006.91;;;10.00;67.39
62418;BME280;48456;54.242;10.280;2024-03-23T13:24:08;100013.75;;;10.16;68.46
62418;BME280;48456;54.242;10.280;2024-03-23T13:26:34;100001.78;;;9.90;68.16
62418;BME280;48456;54.242;10.280;2024-03-23T13:29:00;100007.56;;;9.54;69.07
62418;BME280;48456;54.242;10.280;2024-03-23T13:31:25;100009.88;;;9.08;70.44
62418;BME280;48456;54.242;10.280;2024-03-23T13:33:50;99998.69;;;8.82;71.87
62418;BME280;48456;54.242;10.280;2024-03-23T13:36:16;100015.66;;;8.53;74.21
62418;BME280;48456;54.242;10.280;2024-03-23T13:38:41;100000.47;;;8.82;72.72
62418;BME280;48456;54.242;10.280;2024-03-23T13:41:07;100009.50;;;9.39;71.88
62418;BME280;48456;54.242;10.280;2024-03-23T13:43:34;100005.31;;;9.92;69.36